Marion, Pennsylvania
Current Conditions -  °F | °C
As of 1:29 PM on Monday 26 Jan 2015 (Local Time) from KHGR Reporting Station
Haze Haze  
Wind Chill: 16°   Ceiling: 2000
Heat Index: 26°   Visibility: 3mi
Dew Point: 21°   Wind: 12mph
Humidity: 81%   Direction: 10°N
Pressure: 29.74"   Gusts: NA
Location:  39.86°N, 77.69°W
Report Text: KHGR 261829Z 01010KT 3SM HZ OVC020 M03/M06 A2974 RMK AO2 SNE28 P0000 T10331061
Loading
Personal Weather Stations






























Interactive Weather Map New forecast layout! Learn more

10-Day Weather Forecast

Advertisements
Track Severe Weather on mobile